sensor_id;sensor_type;location;lat;lon;timestamp;temperature;humidity
21580;DHT22;10951;59.656;9.666;2022-07-29T00:00:00;14.50;68.50
21580;DHT22;10951;59.656;9.666;2022-07-29T00:02:30;14.50;68.00
21580;DHT22;10951;59.656;9.666;2022-07-29T00:04:58;14.50;68.70
21580;DHT22;10951;59.656;9.666;2022-07-29T00:07:25;14.40;69.60
21580;DHT22;10951;59.656;9.666;2022-07-29T00:09:52;14.50;69.50
21580;DHT22;10951;59.656;9.666;2022-07-29T00:12:21;14.50;68.70
21580;DHT22;10951;59.656;9.666;2022-07-29T00:14:54;14.40;68.40
21580;DHT22;10951;59.656;9.666;2022-07-29T00:17:22;14.40;69.20
21580;DHT22;10951;59.656;9.666;2022-07-29T00:19:50;14.40;69.00
21580;DHT22;10951;59.656;9.666;2022-07-29T00:22:17;14.30;69.40
21580;DHT22;10951;59.656;9.666;2022-07-29T00:24:44;14.40;69.60
21580;DHT22;10951;59.656;9.666;2022-07-29T00:27:11;14.40;68.60
21580;DHT22;10951;59.656;9.666;2022-07-29T00:29:38;14.30;69.60
21580;DHT22;10951;59.656;9.666;2022-07-29T00:32:05;14.30;69.90
21580;DHT22;10951;59.656;9.666;2022-07-29T00:34:32;14.30;70.90
21580;DHT22;10951;59.656;9.666;2022-07-29T00:37:17;14.40;70.70
21580;DHT22;10951;59.656;9.666;2022-07-29T00:39:44;14.30;69.20
21580;DHT22;10951;59.656;9.666;2022-07-29T00:42:11;14.30;70.70
21580;DHT22;10951;59.656;9.666;2022-07-29T00:44:41;14.40;70.40
21580;DHT22;10951;59.656;9.666;2022-07-29T00:47:10;14.30;69.30
21580;DHT22;10951;59.656;9.666;2022-07-29T00:49:39;14.30;70.70
21580;DHT22;10951;59.656;9.666;2022-07-29T00:52:09;14.30;70.20
21580;DHT22;10951;59.656;9.666;2022-07-29T00:54:36;14.20;70.80
21580;DHT22;10951;59.656;9.666;2022-07-29T00:57:10;14.20;71.30
21580;DHT22;10951;59.656;9.666;2022-07-29T00:59:38;14.20;71.50
21580;DHT22;10951;59.656;9.666;2022-07-29T01:02:05;14.20;71.40
21580;DHT22;10951;59.656;9.666;2022-07-29T01:04:32;14.20;71.60
21580;DHT22;10951;59.656;9.666;2022-07-29T01:07:01;14.20;71.00
21580;DHT22;10951;59.656;9.666;2022-07-29T01:09:30;14.20;71.90
21580;DHT22;10951;59.656;9.666;2022-07-29T01:12:23;14.20;72.00
21580;DHT22;10951;59.656;9.666;2022-07-29T01:14:51;14.20;71.70
21580;DHT22;10951;59.656;9.666;2022-07-29T01:31:03;13.90;73.30
21580;DHT22;10951;59.656;9.666;2022-07-29T01:33:33;13.90;73.90
21580;DHT22;10951;59.656;9.666;2022-07-29T01:36:33;13.90;73.60
21580;DHT22;10951;59.656;9.666;2022-07-29T01:39:35;13.80;73.40
21580;DHT22;10951;59.656;9.666;2022-07-29T01:42:26;13.80;73.80
21580;DHT22;10951;59.656;9.666;2022-07-29T01:45:06;13.70;73.70
21580;DHT22;10951;59.656;9.666;2022-07-29T01:47:56;13.70;73.80
21580;DHT22;10951;59.656;9.666;2022-07-29T01:50:35;13.70;74.60
21580;DHT22;10951;59.656;9.666;2022-07-29T01:53:05;13.80;75.50
21580;DHT22;10951;59.656;9.666;2022-07-29T01:55:36;13.80;75.70
21580;DHT22;10951;59.656;9.666;2022-07-29T01:58:05;13.80;76.20
21580;DHT22;10951;59.656;9.666;2022-07-29T02:00:34;13.80;76.00
21580;DHT22;10951;59.656;9.666;2022-07-29T02:03:05;13.70;76.00
21580;DHT22;10951;59.656;9.666;2022-07-29T02:05:35;13.70;75.70
21580;DHT22;10951;59.656;9.666;2022-07-29T02:08:04;13.60;76.80
21580;DHT22;10951;59.656;9.666;2022-07-29T02:10:33;13.50;77.60
21580;DHT22;10951;59.656;9.666;2022-07-29T02:13:02;13.50;77.20
21580;DHT22;10951;59.656;9.666;2022-07-29T02:15:32;13.50;77.40
21580;DHT22;10951;59.656;9.666;2022-07-29T02:18:15;13.50;77.70
21580;DHT22;10951;59.656;9.666;2022-07-29T02:20:52;13.50;78.30
21580;DHT22;10951;59.656;9.666;2022-07-29T02:23:22;13.40;78.40
21580;DHT22;10951;59.656;9.666;2022-07-29T02:25:52;13.40;78.80
21580;DHT22;10951;59.656;9.666;2022-07-29T02:28:26;13.30;79.20
21580;DHT22;10951;59.656;9.666;2022-07-29T02:30:57;13.20;79.40
21580;DHT22;10951;59.656;9.666;2022-07-29T02:33:26;13.20;79.60
21580;DHT22;10951;59.656;9.666;2022-07-29T02:35:53;13.20;79.60
21580;DHT22;10951;59.656;9.666;2022-07-29T02:38:22;13.20;79.60
21580;DHT22;10951;59.656;9.666;2022-07-29T02:41:12;13.20;79.70
21580;DHT22;10951;59.656;9.666;2022-07-29T02:43:43;13.20;80.00
21580;DHT22;10951;59.656;9.666;2022-07-29T02:46:21;13.30;80.30
21580;DHT22;10951;59.656;9.666;2022-07-29T02:49:17;13.30;80.50
21580;DHT22;10951;59.656;9.666;2022-07-29T02:51:51;13.30;80.80
21580;DHT22;10951;59.656;9.666;2022-07-29T02:54:35;13.30;81.00
21580;DHT22;10951;59.656;9.666;2022-07-29T02:57:17;13.30;81.10
21580;DHT22;10951;59.656;9.666;2022-07-29T02:59:48;13.30;81.10
21580;DHT22;10951;59.656;9.666;2022-07-29T03:02:16;13.30;81.50
21580;DHT22;10951;59.656;9.666;2022-07-29T03:04:44;13.30;82.00
21580;DHT22;10951;59.656;9.666;2022-07-29T03:07:14;13.30;82.60
21580;DHT22;10951;59.656;9.666;2022-07-29T03:09:42;13.30;82.70
21580;DHT22;10951;59.656;9.666;2022-07-29T03:12:11;13.30;81.30
21580;DHT22;10951;59.656;9.666;2022-07-29T03:14:38;13.30;82.50
21580;DHT22;10951;59.656;9.666;2022-07-29T03:17:05;13.30;83.20
21580;DHT22;10951;59.656;9.666;2022-07-29T03:19:32;13.30;83.70
21580;DHT22;10951;59.656;9.666;2022-07-29T03:21:59;13.40;84.10
21580;DHT22;10951;59.656;9.666;2022-07-29T03:24:32;13.40;81.50
21580;DHT22;10951;59.656;9.666;2022-07-29T03:27:00;13.40;83.70
21580;DHT22;10951;59.656;9.666;2022-07-29T03:29:27;13.40;84.30
21580;DHT22;10951;59.656;9.666;2022-07-29T03:32:04;13.40;84.60
21580;DHT22;10951;59.656;9.666;2022-07-29T03:34:35;13.30;85.00
21580;DHT22;10951;59.656;9.666;2022-07-29T03:37:03;13.30;85.30
21580;DHT22;10951;59.656;9.666;2022-07-29T03:39:35;13.30;85.10
21580;DHT22;10951;59.656;9.666;2022-07-29T03:42:04;13.30;84.90
21580;DHT22;10951;59.656;9.666;2022-07-29T03:44:34;13.40;85.00
21580;DHT22;10951;59.656;9.666;2022-07-29T03:47:01;13.40;84.80
21580;DHT22;10951;59.656;9.666;2022-07-29T03:49:31;13.30;84.80
21580;DHT22;10951;59.656;9.666;2022-07-29T03:51:59;13.40;85.20
21580;DHT22;10951;59.656;9.666;2022-07-29T03:54:26;13.40;85.60
21580;DHT22;10951;59.656;9.666;2022-07-29T03:56:54;13.40;85.90
21580;DHT22;10951;59.656;9.666;2022-07-29T03:59:22;13.50;85.50
21580;DHT22;10951;59.656;9.666;2022-07-29T04:01:50;13.50;85.50
21580;DHT22;10951;59.656;9.666;2022-07-29T04:04:17;13.60;85.30
21580;DHT22;10951;59.656;9.666;2022-07-29T04:06:45;13.60;85.80
21580;DHT22;10951;59.656;9.666;2022-07-29T04:09:14;13.60;86.30
21580;DHT22;10951;59.656;9.666;2022-07-29T04:11:42;13.60;85.80
21580;DHT22;10951;59.656;9.666;2022-07-29T04:14:29;13.60;85.80
21580;DHT22;10951;59.656;9.666;2022-07-29T04:16:56;13.60;85.70
21580;DHT22;10951;59.656;9.666;2022-07-29T04:19:23;13.60;86.00
21580;DHT22;10951;59.656;9.666;2022-07-29T04:21:50;13.70;85.40
21580;DHT22;10951;59.656;9.666;2022-07-29T04:24:17;13.70;85.70
21580;DHT22;10951;59.656;9.666;2022-07-29T04:26:46;13.80;85.70
21580;DHT22;10951;59.656;9.666;2022-07-29T04:29:13;13.80;85.40
21580;DHT22;10951;59.656;9.666;2022-07-29T04:31:41;13.70;85.60
21580;DHT22;10951;59.656;9.666;2022-07-29T04:34:08;13.70;85.80
21580;DHT22;10951;59.656;9.666;2022-07-29T04:36:35;13.70;86.20
21580;DHT22;10951;59.656;9.666;2022-07-29T04:39:03;13.80;85.90
21580;DHT22;10951;59.656;9.666;2022-07-29T04:41:30;13.80;86.10
21580;DHT22;10951;59.656;9.666;2022-07-29T04:43:59;13.80;85.90
21580;DHT22;10951;59.656;9.666;2022-07-29T04:46:33;13.80;86.70
21580;DHT22;10951;59.656;9.666;2022-07-29T04:49:01;13.80;86.90
21580;DHT22;10951;59.656;9.666;2022-07-29T04:51:28;13.90;87.30
21580;DHT22;10951;59.656;9.666;2022-07-29T04:53:55;14.00;87.30
21580;DHT22;10951;59.656;9.666;2022-07-29T04:56:22;14.10;87.50
21580;DHT22;10951;59.656;9.666;2022-07-29T04:58:49;14.20;87.10
21580;DHT22;10951;59.656;9.666;2022-07-29T05:01:16;14.40;86.90
21580;DHT22;10951;59.656;9.666;2022-07-29T05:03:43;14.50;85.80
21580;DHT22;10951;59.656;9.666;2022-07-29T05:06:10;14.60;84.60
21580;DHT22;10951;59.656;9.666;2022-07-29T05:08:37;14.70;84.10
21580;DHT22;10951;59.656;9.666;2022-07-29T05:11:07;14.70;84.00
21580;DHT22;10951;59.656;9.666;2022-07-29T05:13:38;14.70;83.90
21580;DHT22;10951;59.656;9.666;2022-07-29T05:16:11;14.70;84.30
21580;DHT22;10951;59.656;9.666;2022-07-29T05:18:39;14.80;85.00
21580;DHT22;10951;59.656;9.666;2022-07-29T05:21:06;14.90;84.40
21580;DHT22;10951;59.656;9.666;2022-07-29T05:23:33;15.20;83.90
21580;DHT22;10951;59.656;9.666;2022-07-29T05:26:00;15.60;82.60
21580;DHT22;10951;59.656;9.666;2022-07-29T05:28:27;16.10;80.70
21580;DHT22;10951;59.656;9.666;2022-07-29T05:30:54;16.60;78.50
21580;DHT22;10951;59.656;9.666;2022-07-29T05:33:21;17.00;77.10
21580;DHT22;10951;59.656;9.666;2022-07-29T05:36:04;17.50;75.60
21580;DHT22;10951;59.656;9.666;2022-07-29T05:38:34;17.90;73.80
21580;DHT22;10951;59.656;9.666;2022-07-29T05:41:01;18.30;72.30
21580;DHT22;10951;59.656;9.666;2022-07-29T05:43:28;18.40;71.50
21580;DHT22;10951;59.656;9.666;2022-07-29T05:45:56;18.50;69.80
21580;DHT22;10951;59.656;9.666;2022-07-29T05:48:23;18.70;69.20
21580;DHT22;10951;59.656;9.666;2022-07-29T05:50:50;18.80;68.30
21580;DHT22;10951;59.656;9.666;2022-07-29T05:53:17;18.90;67.30
21580;DHT22;10951;59.656;9.666;2022-07-29T05:55:47;19.00;66.90
21580;DHT22;10951;59.656;9.666;2022-07-29T05:58:14;19.20;66.80
21580;DHT22;10951;59.656;9.666;2022-07-29T06:00:41;19.40;65.60
21580;DHT22;10951;59.656;9.666;2022-07-29T06:03:08;19.60;65.70
21580;DHT22;10951;59.656;9.666;2022-07-29T06:05:35;19.70;64.10
21580;DHT22;10951;59.656;9.666;2022-07-29T06:08:02;19.90;63.70
21580;DHT22;10951;59.656;9.666;2022-07-29T06:10:30;20.10;62.70
21580;DHT22;10951;59.656;9.666;2022-07-29T06:12:57;20.40;61.30
21580;DHT22;10951;59.656;9.666;2022-07-29T06:15:24;20.60;60.20
21580;DHT22;10951;59.656;9.666;2022-07-29T06:17:51;20.60;59.10
21580;DHT22;10951;59.656;9.666;2022-07-29T06:20:27;20.60;59.50
21580;DHT22;10951;59.656;9.666;2022-07-29T06:22:56;20.60;59.10
21580;DHT22;10951;59.656;9.666;2022-07-29T06:25:23;20.50;58.90
21580;DHT22;10951;59.656;9.666;2022-07-29T06:27:50;20.40;59.30
21580;DHT22;10951;59.656;9.666;2022-07-29T06:30:17;20.20;59.00
21580;DHT22;10951;59.656;9.666;2022-07-29T06:32:44;20.30;59.30
21580;DHT22;10951;59.656;9.666;2022-07-29T06:35:11;20.50;59.50
21580;DHT22;10951;59.656;9.666;2022-07-29T06:37:58;20.70;58.90
21580;DHT22;10951;59.656;9.666;2022-07-29T06:40:25;21.00;58.90
21580;DHT22;10951;59.656;9.666;2022-07-29T06:43:11;21.20;58.10
21580;DHT22;10951;59.656;9.666;2022-07-29T06:45:38;21.40;58.00
21580;DHT22;10951;59.656;9.666;2022-07-29T06:48:09;21.50;57.10
21580;DHT22;10951;59.656;9.666;2022-07-29T06:50:36;21.60;57.00
21580;DHT22;10951;59.656;9.666;2022-07-29T06:53:03;21.90;56.50
21580;DHT22;10951;59.656;9.666;2022-07-29T06:55:30;22.10;56.60
21580;DHT22;10951;59.656;9.666;2022-07-29T06:57:57;22.30;55.00
21580;DHT22;10951;59.656;9.666;2022-07-29T07:00:24;22.50;55.00
21580;DHT22;10951;59.656;9.666;2022-07-29T07:02:51;22.70;55.20
21580;DHT22;10951;59.656;9.666;2022-07-29T07:05:18;22.90;55.20
21580;DHT22;10951;59.656;9.666;2022-07-29T07:07:45;23.00;54.60
21580;DHT22;10951;59.656;9.666;2022-07-29T07:10:12;23.20;53.50
21580;DHT22;10951;59.656;9.666;2022-07-29T07:12:39;23.30;53.70
21580;DHT22;10951;59.656;9.666;2022-07-29T07:15:06;23.40;52.90
21580;DHT22;10951;59.656;9.666;2022-07-29T07:17:33;23.50;52.50
21580;DHT22;10951;59.656;9.666;2022-07-29T07:20:00;23.50;52.40
21580;DHT22;10951;59.656;9.666;2022-07-29T07:22:27;23.60;52.20
21580;DHT22;10951;59.656;9.666;2022-07-29T07:24:54;23.60;51.80
21580;DHT22;10951;59.656;9.666;2022-07-29T07:27:21;23.50;52.80
21580;DHT22;10951;59.656;9.666;2022-07-29T07:29:48;23.50;52.80
21580;DHT22;10951;59.656;9.666;2022-07-29T07:32:14;23.50;52.80
21580;DHT22;10951;59.656;9.666;2022-07-29T07:34:43;23.60;52.00
21580;DHT22;10951;59.656;9.666;2022-07-29T07:37:10;23.60;51.10
21580;DHT22;10951;59.656;9.666;2022-07-29T07:39:37;23.50;50.80
21580;DHT22;10951;59.656;9.666;2022-07-29T07:42:04;23.30;51.70
21580;DHT22;10951;59.656;9.666;2022-07-29T07:44:31;23.10;52.30
21580;DHT22;10951;59.656;9.666;2022-07-29T07:47:07;23.20;51.80
21580;DHT22;10951;59.656;9.666;2022-07-29T07:49:38;23.30;50.40
21580;DHT22;10951;59.656;9.666;2022-07-29T07:52:07;23.40;51.00
21580;DHT22;10951;59.656;9.666;2022-07-29T07:54:34;23.60;50.20
21580;DHT22;10951;59.656;9.666;2022-07-29T07:57:00;23.70;49.30
21580;DHT22;10951;59.656;9.666;2022-07-29T07:59:27;23.70;48.70
21580;DHT22;10951;59.656;9.666;2022-07-29T08:01:54;23.90;48.40
21580;DHT22;10951;59.656;9.666;2022-07-29T08:04:22;24.10;48.60
21580;DHT22;10951;59.656;9.666;2022-07-29T08:06:55;24.20;47.80
21580;DHT22;10951;59.656;9.666;2022-07-29T08:09:24;24.20;48.80
21580;DHT22;10951;59.656;9.666;2022-07-29T08:11:57;24.30;46.90
21580;DHT22;10951;59.656;9.666;2022-07-29T08:14:25;24.40;48.30
21580;DHT22;10951;59.656;9.666;2022-07-29T08:16:51;24.60;47.70
21580;DHT22;10951;59.656;9.666;2022-07-29T08:19:18;24.70;47.50
21580;DHT22;10951;59.656;9.666;2022-07-29T08:21:45;24.90;45.70
21580;DHT22;10951;59.656;9.666;2022-07-29T08:24:12;24.90;47.60
21580;DHT22;10951;59.656;9.666;2022-07-29T08:26:58;25.00;45.70
21580;DHT22;10951;59.656;9.666;2022-07-29T08:29:24;24.80;44.20
21580;DHT22;10951;59.656;9.666;2022-07-29T08:31:51;24.70;44.00
21580;DHT22;10951;59.656;9.666;2022-07-29T08:34:19;24.60;44.90
21580;DHT22;10951;59.656;9.666;2022-07-29T08:36:53;24.50;45.20
21580;DHT22;10951;59.656;9.666;2022-07-29T08:39:20;24.40;44.70
21580;DHT22;10951;59.656;9.666;2022-07-29T08:41:47;24.30;46.20
21580;DHT22;10951;59.656;9.666;2022-07-29T08:44:23;24.20;45.50
21580;DHT22;10951;59.656;9.666;2022-07-29T08:46:56;24.30;46.00
21580;DHT22;10951;59.656;9.666;2022-07-29T08:49:24;24.40;46.00
21580;DHT22;10951;59.656;9.666;2022-07-29T08:51:51;24.50;45.90
21580;DHT22;10951;59.656;9.666;2022-07-29T08:54:21;24.80;45.80
21580;DHT22;10951;59.656;9.666;2022-07-29T08:56:50;24.90;44.90
21580;DHT22;10951;59.656;9.666;2022-07-29T08:59:21;24.90;44.60
21580;DHT22;10951;59.656;9.666;2022-07-29T09:01:51;24.50;45.10
21580;DHT22;10951;59.656;9.666;2022-07-29T09:04:20;24.60;46.80
21580;DHT22;10951;59.656;9.666;2022-07-29T09:06:49;24.50;45.00
21580;DHT22;10951;59.656;9.666;2022-07-29T09:09:17;24.60;46.10
21580;DHT22;10951;59.656;9.666;2022-07-29T09:11:44;24.70;46.20
21580;DHT22;10951;59.656;9.666;2022-07-29T09:14:12;24.70;46.60
21580;DHT22;10951;59.656;9.666;2022-07-29T09:16:56;24.80;45.40
21580;DHT22;10951;59.656;9.666;2022-07-29T09:19:28;24.80;45.90
21580;DHT22;10951;59.656;9.666;2022-07-29T09:21:56;24.90;46.20
21580;DHT22;10951;59.656;9.666;2022-07-29T09:24:37;25.10;46.30
21580;DHT22;10951;59.656;9.666;2022-07-29T09:27:10;25.10;46.10
21580;DHT22;10951;59.656;9.666;2022-07-29T09:29:37;25.20;46.70
21580;DHT22;10951;59.656;9.666;2022-07-29T09:32:08;25.40;46.40
21580;DHT22;10951;59.656;9.666;2022-07-29T09:34:36;25.50;46.30
21580;DHT22;10951;59.656;9.666;2022-07-29T09:37:03;25.50;45.00
21580;DHT22;10951;59.656;9.666;2022-07-29T09:39:38;25.70;45.50
21580;DHT22;10951;59.656;9.666;2022-07-29T09:42:12;25.80;45.40
21580;DHT22;10951;59.656;9.666;2022-07-29T09:44:47;26.00;46.30
21580;DHT22;10951;59.656;9.666;2022-07-29T09:47:18;26.00;44.10
21580;DHT22;10951;59.656;9.666;2022-07-29T09:52:18;25.80;43.70
21580;DHT22;10951;59.656;9.666;2022-07-29T09:54:45;25.70;43.40
21580;DHT22;10951;59.656;9.666;2022-07-29T09:57:26;25.60;43.60
21580;DHT22;10951;59.656;9.666;2022-07-29T10:00:04;25.70;45.00
21580;DHT22;10951;59.656;9.666;2022-07-29T10:02:39;25.80;43.50
21580;DHT22;10951;59.656;9.666;2022-07-29T10:07:45;25.60;44.20
21580;DHT22;10951;59.656;9.666;2022-07-29T10:10:22;25.60;44.90
21580;DHT22;10951;59.656;9.666;2022-07-29T10:12:54;25.60;44.60
21580;DHT22;10951;59.656;9.666;2022-07-29T10:15:29;25.20;44.80
21580;DHT22;10951;59.656;9.666;2022-07-29T10:17:57;24.90;45.10
21580;DHT22;10951;59.656;9.666;2022-07-29T10:20:26;24.60;45.50
21580;DHT22;10951;59.656;9.666;2022-07-29T10:22:53;24.50;46.30
21580;DHT22;10951;59.656;9.666;2022-07-29T10:25:21;24.50;45.60
21580;DHT22;10951;59.656;9.666;2022-07-29T10:27:49;24.40;45.20
21580;DHT22;10951;59.656;9.666;2022-07-29T10:30:18;24.20;45.10
21580;DHT22;10951;59.656;9.666;2022-07-29T10:43:47;23.80;46.80
21580;DHT22;10951;59.656;9.666;2022-07-29T10:46:17;23.80;48.00
21580;DHT22;10951;59.656;9.666;2022-07-29T10:49:04;24.20;47.50
21580;DHT22;10951;59.656;9.666;2022-07-29T10:54:39;24.80;46.40
21580;DHT22;10951;59.656;9.666;2022-07-29T10:59:44;24.80;45.80
21580;DHT22;10951;59.656;9.666;2022-07-29T11:05:10;24.90;45.70
21580;DHT22;10951;59.656;9.666;2022-07-29T11:07:39;24.80;45.50
21580;DHT22;10951;59.656;9.666;2022-07-29T11:12:47;24.50;45.80
21580;DHT22;10951;59.656;9.666;2022-07-29T11:15:19;24.50;45.10
21580;DHT22;10951;59.656;9.666;2022-07-29T11:20:45;24.60;45.20
21580;DHT22;10951;59.656;9.666;2022-07-29T11:23:26;24.70;45.60
21580;DHT22;10951;59.656;9.666;2022-07-29T11:48:00;24.60;44.20
21580;DHT22;10951;59.656;9.666;2022-07-29T11:50:47;24.50;44.70
21580;DHT22;10951;59.656;9.666;2022-07-29T11:53:15;24.30;44.80
21580;DHT22;10951;59.656;9.666;2022-07-29T11:55:42;24.30;44.80
21580;DHT22;10951;59.656;9.666;2022-07-29T11:58:22;24.50;44.50
21580;DHT22;10951;59.656;9.666;2022-07-29T12:00:53;24.70;44.50
21580;DHT22;10951;59.656;9.666;2022-07-29T12:03:26;24.80;44.60
21580;DHT22;10951;59.656;9.666;2022-07-29T12:06:03;25.00;45.20
21580;DHT22;10951;59.656;9.666;2022-07-29T12:08:42;25.30;44.00
21580;DHT22;10951;59.656;9.666;2022-07-29T12:11:18;25.60;43.20
21580;DHT22;10951;59.656;9.666;2022-07-29T12:13:48;25.70;42.50
21580;DHT22;10951;59.656;9.666;2022-07-29T12:16:15;25.90;42.80
21580;DHT22;10951;59.656;9.666;2022-07-29T12:19:01;25.90;42.60
21580;DHT22;10951;59.656;9.666;2022-07-29T12:21:44;25.90;42.10
21580;DHT22;10951;59.656;9.666;2022-07-29T12:24:25;25.60;42.20
21580;DHT22;10951;59.656;9.666;2022-07-29T12:26:55;25.50;43.40
21580;DHT22;10951;59.656;9.666;2022-07-29T12:29:23;25.40;41.90
21580;DHT22;10951;59.656;9.666;2022-07-29T12:32:02;25.30;42.30
21580;DHT22;10951;59.656;9.666;2022-07-29T12:34:30;25.10;42.50
21580;DHT22;10951;59.656;9.666;2022-07-29T12:36:57;24.90;42.30
21580;DHT22;10951;59.656;9.666;2022-07-29T12:39:25;24.80;42.60
21580;DHT22;10951;59.656;9.666;2022-07-29T12:41:54;24.60;43.30
21580;DHT22;10951;59.656;9.666;2022-07-29T12:44:47;24.60;43.10
21580;DHT22;10951;59.656;9.666;2022-07-29T12:47:14;24.60;42.90
21580;DHT22;10951;59.656;9.666;2022-07-29T12:49:41;24.40;42.60
21580;DHT22;10951;59.656;9.666;2022-07-29T12:52:31;24.30;43.90
21580;DHT22;10951;59.656;9.666;2022-07-29T12:54:58;24.10;43.80
21580;DHT22;10951;59.656;9.666;2022-07-29T12:57:25;23.90;43.50
21580;DHT22;10951;59.656;9.666;2022-07-29T13:00:24;24.00;43.40
21580;DHT22;10951;59.656;9.666;2022-07-29T13:02:56;24.40;44.10
21580;DHT22;10951;59.656;9.666;2022-07-29T13:05:24;24.80;44.30
21580;DHT22;10951;59.656;9.666;2022-07-29T13:08:12;25.20;44.00
21580;DHT22;10951;59.656;9.666;2022-07-29T13:10:47;25.30;42.80
21580;DHT22;10951;59.656;9.666;2022-07-29T13:13:15;25.20;42.30
21580;DHT22;10951;59.656;9.666;2022-07-29T13:15:44;24.90;42.40
21580;DHT22;10951;59.656;9.666;2022-07-29T13:18:27;24.80;42.60
21580;DHT22;10951;59.656;9.666;2022-07-29T13:20:55;24.50;43.30
21580;DHT22;10951;59.656;9.666;2022-07-29T13:23:22;24.40;42.70
21580;DHT22;10951;59.656;9.666;2022-07-29T13:25:49;24.30;42.30
21580;DHT22;10951;59.656;9.666;2022-07-29T13:28:16;24.10;42.30
21580;DHT22;10951;59.656;9.666;2022-07-29T13:30:44;23.90;42.50
21580;DHT22;10951;59.656;9.666;2022-07-29T13:33:11;23.90;42.70
21580;DHT22;10951;59.656;9.666;2022-07-29T13:35:38;23.80;43.60
21580;DHT22;10951;59.656;9.666;2022-07-29T13:38:05;23.80;43.30
21580;DHT22;10951;59.656;9.666;2022-07-29T13:40:32;23.80;43.30
21580;DHT22;10951;59.656;9.666;2022-07-29T13:43:01;23.80;43.00
21580;DHT22;10951;59.656;9.666;2022-07-29T13:45:29;23.80;43.20
21580;DHT22;10951;59.656;9.666;2022-07-29T13:47:56;23.90;43.00
21580;DHT22;10951;59.656;9.666;2022-07-29T13:50:23;24.00;44.80
21580;DHT22;10951;59.656;9.666;2022-07-29T13:52:50;24.40;43.90
21580;DHT22;10951;59.656;9.666;2022-07-29T13:55:17;24.70;42.70
21580;DHT22;10951;59.656;9.666;2022-07-29T13:57:44;25.10;42.80
21580;DHT22;10951;59.656;9.666;2022-07-29T14:00:12;25.50;43.10
21580;DHT22;10951;59.656;9.666;2022-07-29T14:02:39;25.70;41.60
21580;DHT22;10951;59.656;9.666;2022-07-29T14:05:07;25.90;41.20
21580;DHT22;10951;59.656;9.666;2022-07-29T14:07:34;26.00;41.40
21580;DHT22;10951;59.656;9.666;2022-07-29T14:10:01;26.30;41.80
21580;DHT22;10951;59.656;9.666;2022-07-29T14:12:29;26.40;41.20
21580;DHT22;10951;59.656;9.666;2022-07-29T14:14:56;26.40;40.70
21580;DHT22;10951;59.656;9.666;2022-07-29T14:17:23;26.50;41.20
21580;DHT22;10951;59.656;9.666;2022-07-29T14:19:50;26.50;40.40
21580;DHT22;10951;59.656;9.666;2022-07-29T14:22:17;26.50;40.60
21580;DHT22;10951;59.656;9.666;2022-07-29T14:24:48;26.50;40.60
21580;DHT22;10951;59.656;9.666;2022-07-29T14:27:15;26.50;39.90
21580;DHT22;10951;59.656;9.666;2022-07-29T14:29:42;26.60;40.60
21580;DHT22;10951;59.656;9.666;2022-07-29T14:32:09;26.70;40.70
21580;DHT22;10951;59.656;9.666;2022-07-29T14:34:37;26.60;40.70
21580;DHT22;10951;59.656;9.666;2022-07-29T14:37:04;26.70;39.90
21580;DHT22;10951;59.656;9.666;2022-07-29T14:39:33;26.60;39.70
21580;DHT22;10951;59.656;9.666;2022-07-29T14:42:08;26.30;40.40
21580;DHT22;10951;59.656;9.666;2022-07-29T14:44:37;26.40;40.40
21580;DHT22;10951;59.656;9.666;2022-07-29T14:47:04;26.40;40.80
21580;DHT22;10951;59.656;9.666;2022-07-29T14:49:34;26.20;40.60
21580;DHT22;10951;59.656;9.666;2022-07-29T14:52:01;25.90;41.30
21580;DHT22;10951;59.656;9.666;2022-07-29T14:54:29;25.80;42.30
21580;DHT22;10951;59.656;9.666;2022-07-29T14:56:56;25.50;42.10
21580;DHT22;10951;59.656;9.666;2022-07-29T14:59:25;25.30;42.70
21580;DHT22;10951;59.656;9.666;2022-07-29T15:01:52;25.30;43.30
21580;DHT22;10951;59.656;9.666;2022-07-29T15:04:19;25.40;43.60
21580;DHT22;10951;59.656;9.666;2022-07-29T15:06:47;25.40;42.90
21580;DHT22;10951;59.656;9.666;2022-07-29T15:09:14;25.50;43.00
21580;DHT22;10951;59.656;9.666;2022-07-29T15:11:41;25.60;43.30
21580;DHT22;10951;59.656;9.666;2022-07-29T15:14:08;25.70;43.10
21580;DHT22;10951;59.656;9.666;2022-07-29T15:16:38;25.80;42.90
21580;DHT22;10951;59.656;9.666;2022-07-29T15:19:09;25.80;42.30
21580;DHT22;10951;59.656;9.666;2022-07-29T15:21:37;25.70;42.30
21580;DHT22;10951;59.656;9.666;2022-07-29T15:24:13;25.60;42.80
21580;DHT22;10951;59.656;9.666;2022-07-29T15:26:40;25.40;42.60
21580;DHT22;10951;59.656;9.666;2022-07-29T15:29:09;25.40;41.90
21580;DHT22;10951;59.656;9.666;2022-07-29T15:31:36;25.20;41.80
21580;DHT22;10951;59.656;9.666;2022-07-29T15:34:03;25.20;41.30
21580;DHT22;10951;59.656;9.666;2022-07-29T15:36:32;25.00;40.40
21580;DHT22;10951;59.656;9.666;2022-07-29T15:39:18;25.10;41.10
21580;DHT22;10951;59.656;9.666;2022-07-29T15:41:45;25.10;41.00
21580;DHT22;10951;59.656;9.666;2022-07-29T15:44:12;25.20;41.00
21580;DHT22;10951;59.656;9.666;2022-07-29T15:46:39;25.40;40.30
21580;DHT22;10951;59.656;9.666;2022-07-29T15:49:25;25.40;39.90
21580;DHT22;10951;59.656;9.666;2022-07-29T15:52:18;25.40;39.80
21580;DHT22;10951;59.656;9.666;2022-07-29T15:54:53;25.50;40.10
21580;DHT22;10951;59.656;9.666;2022-07-29T15:57:21;25.40;39.20
21580;DHT22;10951;59.656;9.666;2022-07-29T15:59:48;25.40;38.20
21580;DHT22;10951;59.656;9.666;2022-07-29T16:02:14;25.40;36.10
21580;DHT22;10951;59.656;9.666;2022-07-29T16:04:41;25.30;36.90
21580;DHT22;10951;59.656;9.666;2022-07-29T16:07:08;25.20;37.30
21580;DHT22;10951;59.656;9.666;2022-07-29T16:09:35;25.20;37.70
21580;DHT22;10951;59.656;9.666;2022-07-29T16:12:02;25.20;38.20
21580;DHT22;10951;59.656;9.666;2022-07-29T16:14:42;25.10;37.60
21580;DHT22;10951;59.656;9.666;2022-07-29T16:17:09;25.00;37.90
21580;DHT22;10951;59.656;9.666;2022-07-29T16:19:41;24.90;38.10
21580;DHT22;10951;59.656;9.666;2022-07-29T16:22:09;24.90;38.70
21580;DHT22;10951;59.656;9.666;2022-07-29T16:24:35;25.00;38.50
21580;DHT22;10951;59.656;9.666;2022-07-29T16:27:03;25.10;38.60
21580;DHT22;10951;59.656;9.666;2022-07-29T16:29:30;25.20;38.90
21580;DHT22;10951;59.656;9.666;2022-07-29T16:31:57;25.30;37.70
21580;DHT22;10951;59.656;9.666;2022-07-29T16:34:24;25.20;38.00
21580;DHT22;10951;59.656;9.666;2022-07-29T16:36:50;25.10;37.60
21580;DHT22;10951;59.656;9.666;2022-07-29T16:39:17;25.00;38.20
21580;DHT22;10951;59.656;9.666;2022-07-29T16:41:44;25.00;37.80
21580;DHT22;10951;59.656;9.666;2022-07-29T16:44:11;25.00;37.60
21580;DHT22;10951;59.656;9.666;2022-07-29T16:46:38;24.90;37.40
21580;DHT22;10951;59.656;9.666;2022-07-29T16:49:07;24.80;37.20
21580;DHT22;10951;59.656;9.666;2022-07-29T16:51:34;24.60;37.40
21580;DHT22;10951;59.656;9.666;2022-07-29T16:54:00;24.60;38.70